Time;durP1;ratioP1;P1;durP2;ratioP2;P2;SDS_P1;SDS_P2;PMS_P1;PMS_P2;Temp;Humidity;BMP_temperature;BMP_pressure;BME280_temperature;BME280_humidity;BME280_pressure;Samples;Min_cycle;Max_cycle;Signal;HPM_P1;HPM_P2
2023/01/16 00:00:51;;;;;;;5.95;4.13;;;;;;;9.19;74.21;101655.69;4952249;28;20028;-84
2023/01/16 00:03:17;;;;;;;5.38;4.03;;;;;;;8.86;74.44;101582.06;4970555;28;20039;-85
2023/01/16 00:05:43;;;;;;;4.93;3.63;;;;;;;9.15;74.39;101641.50;4955717;28;20046;-85
2023/01/16 00:08:09;;;;;;;;;;;;;;;9.24;74.40;101651.72;4956340;28;20027;-84
2023/01/16 00:10:34;;;;;;;4.90;3.53;;;;;;;9.26;74.19;101649.22;4954506;28;19926;-84
2023/01/16 00:13:00;;;;;;;5.68;3.95;;;;;;;9.19;74.65;101655.69;4971836;28;20484;-84
2023/01/16 00:15:25;;;;;;;4.47;3.53;;;;;;;9.21;74.48;101650.56;4972489;28;20549;-84
2023/01/16 00:17:51;;;;;;;5.50;3.90;;;;;;;9.21;74.49;101651.50;4971774;28;20496;-84
2023/01/16 00:20:17;;;;;;;5.90;4.10;;;;;;;9.22;74.82;101655.91;4972418;28;20085;-84
2023/01/16 00:22:42;;;;;;;5.25;3.80;;;;;;;9.03;74.98;101629.28;4972392;28;20559;-85
2023/01/16 00:25:08;;;;;;;5.90;4.00;;;;;;;9.21;74.80;101651.50;4954853;28;20042;-84
2023/01/16 00:27:34;;;;;;;5.50;3.80;;;;;;;9.13;74.79;101639.59;4955305;28;20286;-84
2023/01/16 00:30:00;;;;;;;6.28;3.90;;;;;;;9.26;74.35;101646.63;4955484;28;20127;-84
2023/01/16 00:32:25;;;;;;;5.35;3.67;;;;;;;9.03;74.56;101611.94;4972436;28;20082;-84
2023/01/16 00:34:51;;;;;;;5.35;3.78;;;;;;;8.93;74.79;101593.81;4954725;28;20031;-85
2023/01/16 00:37:16;;;;;;;5.25;3.58;;;;;;;9.02;74.70;101607.53;4971461;28;20389;-85
2023/01/16 00:39:42;;;;;;;5.47;3.70;;;;;;;8.93;74.87;101599.03;4955236;28;20043;-84
2023/01/16 00:42:08;;;;;;;7.68;3.88;;;;;;;9.05;74.76;101610.38;4937973;28;20051;-85
2023/01/16 00:44:33;;;;;;;5.45;3.97;;;;;;;9.18;74.60;101625.19;4954211;28;20038;-85
2023/01/16 00:46:59;;;;;;;5.35;3.58;;;;;;;9.05;74.46;101597.34;4953221;28;20077;-84
2023/01/16 00:49:25;;;;;;;5.22;3.90;;;;;;;8.95;74.35;101582.75;4952676;28;20039;-85
2023/01/16 00:51:50;;;;;;;5.88;3.80;;;;;;;8.94;74.52;101572.19;4971694;28;20027;-85
2023/01/16 00:54:16;;;;;;;5.63;3.70;;;;;;;9.17;74.55;101605.16;4953641;28;20115;-84
2023/01/16 00:56:41;;;;;;;4.15;3.33;;;;;;;8.91;74.60;101569.34;4951607;28;20038;-84
2023/01/16 00:59:07;;;;;;;4.50;3.50;;;;;;;9.12;74.11;101603.91;4952518;28;20046;-85
2023/01/16 01:01:33;;;;;;;4.27;3.13;;;;;;;9.27;74.39;101612.84;4952681;28;20301;-85
2023/01/16 01:03:59;;;;;;;6.22;3.72;;;;;;;9.09;74.78;101590.66;4968050;28;20811;-85
2023/01/16 01:06:24;;;;;;;;;;;;;;;9.23;74.43;101610.81;4962409;28;20035;-85
2023/01/16 01:08:50;;;;;;;4.95;3.60;;;;;;;9.08;74.72;101583.63;4953029;28;19918;-85
2023/01/16 01:11:16;;;;;;;4.90;3.63;;;;;;;8.94;74.94;101560.06;4971890;28;20045;-84
2023/01/16 01:13:42;;;;;;;5.30;3.78;;;;;;;9.11;74.75;101589.06;4952637;28;20799;-84
2023/01/16 01:16:08;;;;;;;5.22;3.38;;;;;;;8.97;74.65;101556.78;4952891;28;20034;-84
2023/01/16 01:18:34;;;;;;;5.05;3.55;;;;;;;9.13;74.95;101587.47;4945480;28;20038;-84
2023/01/16 01:21:00;;;;;;;5.15;3.42;;;;;;;9.21;74.64;101593.22;4971211;28;20027;-83
2023/01/16 01:23:25;;;;;;;5.10;3.67;;;;;;;9.08;74.69;101578.41;4970664;28;20077;-84
2023/01/16 01:25:52;;;;;;;4.85;3.72;;;;;;;8.97;75.12;101559.38;4963652;28;20289;-84
2023/01/16 01:28:18;;;;;;;4.65;3.47;;;;;;;9.11;75.16;101582.16;4953205;28;20031;-84
2023/01/16 01:30:44;;;;;;;4.53;3.53;;;;;;;9.05;74.97;101566.06;4970468;28;20053;-84
2023/01/16 01:33:09;;;;;;;4.78;3.47;;;;;;;9.22;74.98;101582.94;4969929;28;20031;-83
2023/01/16 01:35:36;;;;;;;5.32;3.60;;;;;;;9.12;74.91;101570.94;4968969;28;20046;-83
2023/01/16 01:38:01;;;;;;;5.70;3.63;;;;;;;9.03;75.23;101570.25;4952988;28;20035;-83
2023/01/16 01:40:27;;;;;;;5.05;3.45;;;;;;;8.93;74.77;101537.44;4953902;28;20038;-83
2023/01/16 01:42:53;;;;;;;4.68;3.42;;;;;;;9.17;74.72;101574.78;4953923;28;20511;-84
2023/01/16 01:45:29;;;;;;;4.47;3.38;;;;;;;9.24;74.69;101576.13;4970614;28;20479;-83
2023/01/16 01:48:00;;;;;;;4.85;3.42;;;;;;;9.23;75.02;101584.75;4953979;28;20042;-84
2023/01/16 01:50:32;;;;;;;4.82;3.35;;;;;;;9.27;74.37;101578.97;4970304;28;20027;-84
2023/01/16 01:52:59;;;;;;;5.50;3.45;;;;;;;9.32;74.30;101567.16;4970631;28;20098;-83
2023/01/16 01:55:25;;;;;;;4.80;3.50;;;;;;;9.16;74.35;101551.22;4951573;28;20033;-83
2023/01/16 01:57:56;;;;;;;4.22;3.30;;;;;;;9.27;74.51;101573.75;4953108;28;20042;-84
2023/01/16 02:00:25;;;;;;;5.30;3.80;;;;;;;9.28;74.38;101565.13;4951815;28;20041;-83
2023/01/16 02:03:01;;;;;;;4.05;3.13;;;;;;;9.30;74.42;101570.47;4949599;28;20039;-83
2023/01/16 02:05:37;;;;;;;4.63;3.38;;;;;;;9.24;74.38;101564.81;4967958;28;20114;-84
2023/01/16 02:08:03;;;;;;;4.50;3.58;;;;;;;9.15;74.72;101549.41;4968922;28;20550;-83
2023/01/16 02:10:39;;;;;;;3.83;3.05;;;;;;;9.26;74.54;101574.53;4950651;28;20062;-83
2023/01/16 02:13:05;;;;;;;4.93;3.43;;;;;;;9.17;74.55;101553.94;4948152;28;20035;-83
2023/01/16 02:15:31;;;;;;;4.47;3.40;;;;;;;9.17;74.67;101559.16;4968126;28;20655;-84
2023/01/16 02:21:12;;;;;;;4.45;3.20;;;;;;;9.28;74.36;101574.66;4954817;28;20037;-84
2023/01/16 02:24:00;;;;;;;4.57;3.13;;;;;;;9.23;74.34;101573.41;4965232;28;20057;-84
2023/01/16 02:26:37;;;;;;;;;;;;;;;9.29;74.66;101571.25;4972677;28;20066;-84
2023/01/16 02:29:30;;;;;;;3.75;3.00;;;;;;;9.20;74.60;101566.28;4955746;28;19977;-83
2023/01/16 02:32:03;;;;;;;3.92;3.10;;;;;;;9.16;74.57;101559.97;4956720;28;20038;-83
2023/01/16 02:34:51;;;;;;;3.92;3.33;;;;;;;9.16;74.46;101552.13;4955274;28;20123;-83
2023/01/16 02:37:43;;;;;;;4.28;3.03;;;;;;;9.26;74.74;101571.03;4969763;28;20031;-84
2023/01/16 02:40:28;;;;;;;4.60;3.08;;;;;;;9.20;74.79;101574.09;4953744;28;20026;-84
2023/01/16 02:43:03;;;;;;;3.85;2.75;;;;;;;9.24;74.52;101557.88;4957342;28;20393;-83
2023/01/16 02:45:54;;;;;;;4.40;3.15;;;;;;;9.21;74.81;101562.88;4971835;28;20042;-83
2023/01/16 02:48:51;;;;;;;4.20;2.92;;;;;;;8.81;74.78;101494.88;4952600;28;20441;-82
2023/01/16 02:51:33;;;;;;;4.97;3.17;;;;;;;9.15;74.49;101554.63;4903476;29;20040;-82
2023/01/16 02:54:10;;;;;;;4.95;3.28;;;;;;;9.21;74.47;101564.56;4956366;28;20030;-83
2023/01/16 02:56:55;;;;;;;3.15;2.75;;;;;;;9.27;74.46;101570.22;4972061;28;20528;-82
2023/01/16 02:59:21;;;;;;;4.72;3.30;;;;;;;9.17;74.57;101553.94;4973296;28;20408;-82
2023/01/16 03:01:49;;;;;;;4.03;3.08;;;;;;;9.05;74.54;101531.31;4973125;28;20496;-83
2023/01/16 03:04:36;;;;;;;4.45;3.30;;;;;;;9.22;74.75;101566.41;4973607;28;20023;-84
2023/01/16 03:07:39;;;;;;;4.00;2.90;;;;;;;9.26;74.62;101560.59;4965583;28;20416;-84
2023/01/16 03:10:40;;;;;;;4.80;3.20;;;;;;;9.22;74.57;101551.66;4972104;28;20047;-85
2023/01/16 03:13:38;;;;;;;3.85;3.05;;;;;;;9.17;74.73;101551.31;4937242;28;20388;-85
2023/01/16 03:16:20;;;;;;;4.35;3.20;;;;;;;9.15;75.09;101544.19;4932323;28;20193;-84
2023/01/16 03:18:57;;;;;;;5.88;3.45;;;;;;;9.22;74.68;101542.94;4952314;28;20031;-84
2023/01/16 03:21:42;;;;;;;4.38;3.13;;;;;;;9.17;74.90;101545.22;4955946;28;20086;-84
2023/01/16 03:24:36;;;;;;;4.53;3.20;;;;;;;9.20;74.60;101542.81;4972001;28;20061;-84
2023/01/16 03:27:31;;;;;;;3.90;2.80;;;;;;;9.13;74.93;101519.72;4960794;28;20073;-84
2023/01/16 03:30:14;;;;;;;5.75;3.33;;;;;;;8.86;74.76;101488.28;4966430;28;20841;-84
2023/01/16 03:32:50;;;;;;;4.70;2.75;;;;;;;9.10;74.99;101525.63;4955711;28;20031;-84
2023/01/16 03:35:21;;;;;;;4.43;3.22;;;;;;;9.14;74.47;101517.25;4972908;28;20030;-84
2023/01/16 03:37:50;;;;;;;4.13;3.00;;;;;;;8.77;74.95;101457.28;4946629;28;20030;-82
2023/01/16 03:40:24;;;;;;;5.30;3.22;;;;;;;9.17;74.82;101532.19;4956650;28;20077;-83
2023/01/16 03:42:52;;;;;;;3.92;3.13;;;;;;;9.19;74.93;101528.00;4956017;28;20057;-83
2023/01/16 03:45:25;;;;;;;3.70;3.08;;;;;;;9.14;74.66;101530.28;4973954;28;20093;-84
2023/01/16 03:48:09;;;;;;;5.22;3.45;;;;;;;9.20;74.95;101529.78;4956435;28;20077;-83
2023/01/16 03:50:35;;;;;;;3.67;2.75;;;;;;;9.13;74.71;101520.63;4966607;28;20034;-83
2023/01/16 03:53:06;;;;;;;4.75;3.33;;;;;;;9.24;74.89;101533.53;4955578;28;20027;-83
2023/01/16 03:56:03;;;;;;;4.10;3.00;;;;;;;9.21;74.72;101529.00;4956164;28;20035;-83
2023/01/16 03:58:33;;;;;;;4.95;3.35;;;;;;;9.19;74.87;101535.81;4928820;28;20101;-83
2023/01/16 04:01:07;;;;;;;3.53;2.83;;;;;;;9.21;74.82;101530.69;4970963;28;20035;-83
2023/01/16 04:03:39;;;;;;;3.97;2.97;;;;;;;9.11;74.69;101505.69;4973666;28;20063;-84
2023/01/16 04:06:34;;;;;;;4.25;3.00;;;;;;;9.22;74.73;101530.81;4972163;28;20500;-83
2023/01/16 04:09:03;;;;;;;3.55;2.80;;;;;;;9.20;74.95;101539.31;4973051;28;20039;-83
2023/01/16 04:11:29;;;;;;;3.92;3.05;;;;;;;9.09;74.91;101517.69;4955242;28;20034;-84
2023/01/16 04:13:56;;;;;;;5.10;3.30;;;;;;;9.19;74.84;101524.50;4971845;28;20106;-84
2023/01/16 04:16:22;;;;;;;4.57;3.00;;;;;;;9.17;75.10;101524.38;4955953;28;20027;-84
2023/01/16 04:18:49;;;;;;;4.53;3.10;;;;;;;9.27;74.39;101536.34;4973243;28;20037;-84
2023/01/16 04:21:15;;;;;;;3.90;2.90;;;;;;;9.16;74.89;101522.53;4955144;28;20030;-83
2023/01/16 04:23:41;;;;;;;4.75;3.15;;;;;;;9.13;74.69;101515.41;4971772;28;20031;-83
2023/01/16 04:26:06;;;;;;;5.40;3.53;;;;;;;9.17;75.08;101538.31;4955692;28;20038;-83
2023/01/16 04:28:32;;;;;;;4.20;3.10;;;;;;;9.05;75.16;101513.06;4972970;28;20027;-84
2023/01/16 04:30:57;;;;;;;3.72;3.10;;;;;;;9.21;74.96;101512.44;4971833;28;20117;-83
2023/01/16 04:33:23;;;;;;;4.65;3.30;;;;;;;9.13;74.99;101496.28;4972783;28;20417;-83
2023/01/16 04:35:48;;;;;;;4.07;3.05;;;;;;;9.09;74.64;101492.53;4955387;28;20559;-82
2023/01/16 04:38:14;;;;;;;4.33;3.20;;;;;;;8.79;74.58;101433.97;4972609;28;20070;-83
2023/01/16 04:40:40;;;;;;;4.97;3.17;;;;;;;8.94;74.61;101461.09;4959714;28;20282;-83
2023/01/16 04:43:05;;;;;;;4.20;2.97;;;;;;;9.14;74.90;101498.06;4972420;28;20782;-83
2023/01/16 04:45:31;;;;;;;4.57;3.20;;;;;;;9.07;74.29;101473.28;4971530;28;20041;-83
2023/01/16 04:47:56;;;;;;;4.32;2.85;;;;;;;8.74;74.42;101425.81;4972849;28;20109;-83
2023/01/16 04:50:22;;;;;;;4.60;3.42;;;;;;;9.16;74.56;101489.59;4972346;28;20034;-82
2023/01/16 04:52:48;;;;;;;5.53;3.65;;;;;;;9.12;74.77;101477.16;4972508;28;20038;-83
2023/01/16 04:55:13;;;;;;;5.07;3.28;;;;;;;9.22;74.72;101499.53;4971341;28;20508;-83
2023/01/16 04:57:39;;;;;;;5.03;3.50;;;;;;;8.93;74.66;101454.09;4972278;28;20492;-83
2023/01/16 05:00:09;;;;;;;4.75;3.35;;;;;;;9.18;74.84;101487.09;4970714;28;20643;-83
2023/01/16 05:02:34;;;;;;;5.43;3.50;;;;;;;9.11;74.60;101464.00;4971581;28;20484;-83
2023/01/16 05:05:00;;;;;;;5.55;3.80;;;;;;;9.11;75.04;101462.28;4971719;28;20025;-82
2023/01/16 05:07:27;;;;;;;4.90;3.35;;;;;;;9.23;75.00;101484.78;4954635;28;20106;-82
2023/01/16 05:09:53;;;;;;;5.30;3.60;;;;;;;9.12;74.92;101473.63;4970813;28;20055;-82
2023/01/16 05:12:18;;;;;;;5.28;3.90;;;;;;;9.28;74.74;101486.03;4954618;28;20185;-84
2023/01/16 05:14:44;;;;;;;5.97;3.70;;;;;;;9.24;74.65;101481.41;4960454;28;20575;-83
2023/01/16 05:17:10;;;;;;;4.65;3.65;;;;;;;9.07;74.83;101460.25;4972216;28;20030;-82
2023/01/16 05:19:35;;;;;;;6.15;3.97;;;;;;;9.14;75.03;101469.41;4971454;28;20027;-82
2023/01/16 05:22:01;;;;;;;5.77;3.83;;;;;;;9.13;74.70;101463.31;4971065;28;20065;-83
2023/01/16 05:24:26;;;;;;;5.73;3.63;;;;;;;9.05;74.43;101456.66;4954115;28;20289;-83
2023/01/16 05:26:52;;;;;;;5.40;3.67;;;;;;;9.04;74.72;101461.72;4954520;28;20290;-84
2023/01/16 05:29:17;;;;;;;4.72;3.70;;;;;;;8.94;75.14;101444.56;4971796;28;20290;-83
2023/01/16 05:31:43;;;;;;;6.18;3.70;;;;;;;9.12;74.96;101464.13;4972141;28;20039;-82
2023/01/16 05:34:09;;;;;;;5.60;3.80;;;;;;;9.11;74.91;101467.50;4971244;28;20027;-83
2023/01/16 05:36:34;;;;;;;5.10;3.42;;;;;;;9.13;74.38;101463.31;4972017;28;20105;-83
2023/01/16 05:39:01;;;;;;;6.35;3.88;;;;;;;8.96;74.64;101446.47;4970262;28;20045;-83
2023/01/16 05:41:26;;;;;;;4.07;3.38;;;;;;;9.05;74.27;101443.63;4954615;28;20408;-83
2023/01/16 05:43:52;;;;;;;5.72;3.60;;;;;;;9.14;74.69;101457.31;4971804;28;20027;-83
2023/01/16 05:46:17;;;;;;;5.18;3.40;;;;;;;9.01;74.71;101428.56;4954094;28;20042;-82
2023/01/16 05:48:43;;;;;;;5.63;3.40;;;;;;;8.94;74.36;101411.59;4970720;28;20066;-85
2023/01/16 05:51:09;;;;;;;5.13;3.53;;;;;;;8.98;74.27;101427.47;4971551;28;20094;-83
2023/01/16 05:53:34;;;;;;;4.90;3.20;;;;;;;9.10;74.58;101433.50;4970734;28;20109;-84
2023/01/16 05:56:09;;;;;;;4.70;3.13;;;;;;;8.92;74.69;101401.88;4970960;28;20042;-84
2023/01/16 05:58:35;;;;;;;4.88;3.47;;;;;;;9.22;74.66;101465.66;4944279;28;20037;-84
2023/01/16 06:01:01;;;;;;;6.22;4.32;;;;;;;9.22;74.67;101464.75;4973602;28;20105;-84
2023/01/16 06:03:27;;;;;;;7.70;4.30;;;;;;;9.11;74.39;101444.06;4969947;28;20093;-82
2023/01/16 06:05:53;;;;;;;6.28;3.88;;;;;;;9.09;74.45;101434.31;4971468;28;20038;-84
2023/01/16 06:08:18;;;;;;;6.43;3.88;;;;;;;9.10;74.42;101443.94;4970702;28;20564;-84
2023/01/16 06:10:47;;;;;;;6.30;3.57;;;;;;;9.08;74.82;101450.75;4941431;28;20044;-84
2023/01/16 06:13:13;;;;;;;6.03;3.75;;;;;;;9.17;74.85;101477.47;4951241;28;20345;-85
2023/01/16 06:15:39;;;;;;;6.40;4.05;;;;;;;9.01;74.85;101448.50;4961557;28;20560;-84
2023/01/16 06:18:04;;;;;;;5.72;3.88;;;;;;;9.10;74.71;101464.78;4959881;28;20031;-84
2023/01/16 06:20:30;;;;;;;7.30;3.72;;;;;;;8.80;74.38;101401.00;4952094;28;20519;-85
2023/01/16 06:22:55;;;;;;;5.30;3.70;;;;;;;8.94;74.82;101445.47;4951855;28;20035;-83
2023/01/16 06:25:21;;;;;;;5.50;3.40;;;;;;;9.16;74.71;101481.78;4966874;28;20267;-83
2023/01/16 06:27:48;;;;;;;4.53;3.37;;;;;;;8.94;74.68;101437.66;4946088;28;20299;-84
2023/01/16 06:30:14;;;;;;;6.57;3.78;;;;;;;8.80;74.58;101408.81;4948500;28;20827;-85
2023/01/16 06:32:40;;;;;;;6.35;3.78;;;;;;;9.20;74.59;101480.28;4946914;28;20043;-84
2023/01/16 06:35:05;;;;;;;5.05;3.55;;;;;;;8.70;74.79;101402.03;4946363;28;20488;-83
2023/01/16 06:37:31;;;;;;;5.32;3.85;;;;;;;9.24;74.34;101484.91;4965300;28;20032;-83
2023/01/16 06:39:59;;;;;;;7.18;4.45;;;;;;;9.02;74.53;101442.53;4951229;28;20058;-84
2023/01/16 06:42:24;;;;;;;6.22;3.92;;;;;;;9.17;74.88;101469.66;4962637;28;20513;-84
2023/01/16 06:44:50;;;;;;;6.05;3.90;;;;;;;8.91;74.52;101421.81;4951525;29;20027;-84
2023/01/16 06:47:16;;;;;;;55.45;9.80;;;;;;;8.88;75.13;101416.38;4951618;28;20031;-84
2023/01/16 06:49:41;;;;;;;31.88;7.47;;;;;;;9.19;74.85;101460.25;4966838;28;20501;-84
2023/01/16 06:52:07;;;;;;;31.60;6.95;;;;;;;9.28;74.72;101478.22;4965541;28;20097;-84
2023/01/16 06:54:32;;;;;;;21.05;6.60;;;;;;;9.20;75.11;101469.84;4959096;28;20028;-83
2023/01/16 06:56:58;;;;;;;18.35;6.57;;;;;;;9.05;74.60;101438.41;4950438;28;20625;-83
2023/01/16 06:59:24;;;;;;;20.17;6.43;;;;;;;9.12;74.52;101450.16;4949833;28;20059;-83
2023/01/16 07:01:49;;;;;;;19.90;6.87;;;;;;;9.13;74.85;101463.31;4949413;28;20306;-83
2023/01/16 07:04:15;;;;;;;23.30;6.93;;;;;;;9.05;74.63;101435.81;4951689;28;20286;-84
2023/01/16 07:06:43;;;;;;;18.63;7.03;;;;;;;9.12;74.82;101451.09;4955352;28;20283;-84
2023/01/16 07:09:09;;;;;;;16.63;6.38;;;;;;;8.95;74.82;101426.44;4958880;28;20051;-83
2023/01/16 07:11:34;;;;;;;14.32;6.18;;;;;;;9.10;74.77;101439.66;4973329;28;20030;-83
2023/01/16 07:24:59;;;;;;;12.65;5.50;;;;;;;9.15;74.82;101443.47;4955754;28;20110;-84
2023/01/16 07:27:25;;;;;;;12.52;5.90;;;;;;;9.13;74.31;101437.25;4955993;28;20030;-83
2023/01/16 07:29:51;;;;;;;12.38;6.03;;;;;;;9.15;74.65;101440.88;4971801;28;20019;-85
2023/01/16 07:32:17;;;;;;;;;;;;;;;9.22;74.72;101434.38;4973239;28;20038;-85
2023/01/16 07:34:42;;;;;;;14.30;6.03;;;;;;;9.16;74.52;101426.13;4956068;28;19914;-84
2023/01/16 07:37:10;;;;;;;16.33;5.97;;;;;;;9.03;74.67;101411.34;4967849;28;20475;-83
2023/01/16 07:39:36;;;;;;;13.02;6.10;;;;;;;9.04;74.61;101407.03;4973450;28;20528;-84
2023/01/16 07:42:06;;;;;;;14.05;6.30;;;;;;;9.08;74.82;101412.59;4971717;28;20035;-84
2023/01/16 07:44:32;;;;;;;12.93;6.68;;;;;;;8.98;74.69;101404.91;4955426;28;20120;-84
2023/01/16 07:46:57;;;;;;;16.48;6.30;;;;;;;9.13;74.70;101405.09;4954413;28;20030;-83
2023/01/16 07:49:23;;;;;;;11.15;5.78;;;;;;;9.20;74.42;101422.94;4968781;28;20068;-84
2023/01/16 07:51:49;;;;;;;11.48;6.13;;;;;;;9.19;74.62;101421.16;4953896;28;20050;-84
2023/01/16 07:54:14;;;;;;;13.10;5.88;;;;;;;9.23;74.45;101415.38;4955221;28;20151;-83
2023/01/16 07:56:40;;;;;;;11.00;6.38;;;;;;;8.91;74.71;101360.97;4973772;28;20015;-83
2023/01/16 07:59:06;;;;;;;14.10;6.97;;;;;;;9.15;75.09;101393.06;4955678;28;20045;-83
2023/01/16 08:01:32;;;;;;;12.75;6.50;;;;;;;9.10;74.84;101382.34;4972365;28;20037;-83
2023/01/16 08:03:57;;;;;;;11.70;6.63;;;;;;;9.14;74.70;101378.22;4973722;28;20034;-82
2023/01/16 08:06:23;;;;;;;12.48;6.22;;;;;;;8.76;74.33;101306.13;4971799;28;20116;-83
2023/01/16 08:08:49;;;;;;;9.80;5.50;;;;;;;8.98;74.43;101334.59;4955456;28;20034;-83
2023/01/16 08:13:58;;;;;;;11.93;5.82;;;;;;;9.06;74.52;101349.06;4973543;28;20037;-83
2023/01/16 08:16:24;;;;;;;10.82;5.88;;;;;;;9.14;74.62;101370.41;4972652;28;20098;-84
2023/01/16 08:18:50;;;;;;;11.40;5.95;;;;;;;9.13;75.04;101366.00;4973471;28;20035;-84
2023/01/16 08:21:16;;;;;;;12.38;6.07;;;;;;;9.25;74.68;101386.78;4944021;28;20034;-82
2023/01/16 08:23:42;;;;;;;12.43;5.80;;;;;;;9.02;74.86;101352.25;4956146;28;20031;-84
2023/01/16 08:26:09;;;;;;;10.93;5.55;;;;;;;9.07;74.79;101356.06;4971461;28;20026;-82
2023/01/16 08:28:35;;;;;;;;;;;;;;;9.22;74.84;101377.06;4955895;28;20132;-85
2023/01/16 08:31:11;;;;;;;10.88;6.20;;;;;;;9.23;75.10;101375.34;4953991;28;20315;-85
2023/01/16 08:33:38;;;;;;;11.50;6.05;;;;;;;9.09;74.51;101359.66;4948744;28;20031;-83
2023/01/16 08:36:05;;;;;;;20.45;6.70;;;;;;;9.00;75.67;101351.22;4964925;28;20035;-84
2023/01/16 08:38:31;;;;;;;15.73;7.10;;;;;;;9.22;75.06;101377.06;4948205;28;20515;-85
2023/01/16 08:40:56;;;;;;;14.75;6.93;;;;;;;9.14;74.34;101370.41;4954531;28;20031;-86
2023/01/16 08:51:48;;;;;;;12.40;5.93;;;;;;;9.08;73.74;101350.06;4971428;28;20409;-84
2023/01/16 08:54:13;;;;;;;10.60;5.75;;;;;;;9.16;74.10;101369.75;4969985;28;20031;-85
2023/01/16 08:56:42;;;;;;;11.18;5.45;;;;;;;9.14;73.76;101355.69;4955050;28;20397;-84
2023/01/16 08:59:09;;;;;;;10.85;6.00;;;;;;;9.06;73.66;101340.31;4969781;28;20512;-83
2023/01/16 09:01:36;;;;;;;9.80;5.47;;;;;;;9.24;73.20;101362.44;4955425;28;20038;-84
2023/01/16 09:04:02;;;;;;;9.07;5.25;;;;;;;9.08;73.43;101338.72;4972460;28;20031;-84
2023/01/16 09:06:27;;;;;;;11.95;5.63;;;;;;;9.28;73.67;101367.06;4970083;28;20027;-83
2023/01/16 09:08:53;;;;;;;10.85;5.78;;;;;;;8.98;73.20;101307.63;4951348;28;20043;-85
2023/01/16 09:14:02;;;;;;;11.35;5.40;;;;;;;9.29;72.96;101347.09;4965619;28;20106;-85
2023/01/16 09:16:28;;;;;;;11.23;5.80;;;;;;;8.84;72.90;101271.09;4947986;28;20122;-86
2023/01/16 09:18:54;;;;;;;9.85;5.57;;;;;;;8.87;73.36;101270.41;4967656;28;20492;-85
2023/01/16 09:21:19;;;;;;;13.18;6.00;;;;;;;9.19;73.98;101321.25;4952176;28;20054;-85
2023/01/16 09:23:46;;;;;;;9.00;5.20;;;;;;;8.79;73.46;101241.25;4949883;28;20031;-85
2023/01/16 09:26:11;;;;;;;10.02;5.28;;;;;;;9.00;73.31;101274.78;4949797;28;20035;-84
2023/01/16 09:28:37;;;;;;;8.57;5.40;;;;;;;9.28;73.41;101321.84;4966741;28;20027;-86
2023/01/16 09:31:03;;;;;;;10.18;5.47;;;;;;;9.30;73.23;101313.34;4951212;28;20046;-85
2023/01/16 09:33:28;;;;;;;9.68;5.25;;;;;;;8.87;73.29;101229.66;4967433;28;20035;-84
2023/01/16 09:35:58;;;;;;;8.95;4.78;;;;;;;9.23;72.88;101282.47;4939632;28;20050;-85
2023/01/16 09:38:23;;;;;;;11.13;5.82;;;;;;;8.87;72.82;101208.81;4931968;28;20034;-84
2023/01/16 09:40:55;;;;;;;9.60;5.32;;;;;;;9.13;72.81;101243.53;4965721;28;20150;-84
2023/01/16 09:43:39;;;;;;;8.88;4.97;;;;;;;9.36;72.97;101277.25;4934801;28;20066;-84
2023/01/16 09:46:15;;;;;;;7.75;4.85;;;;;;;9.27;72.76;101262.69;4959523;28;20031;-84
2023/01/16 09:48:58;;;;;;;8.03;5.00;;;;;;;9.40;73.27;101277.44;4967533;28;20034;-84
2023/01/16 09:51:25;;;;;;;10.75;4.85;;;;;;;9.38;72.99;101278.25;4946350;28;20440;-84
2023/01/16 09:59:41;;;;;;;8.10;4.63;;;;;;;9.40;72.73;101273.16;4949180;28;20043;-84
2023/01/16 10:02:09;;;;;;;8.20;4.93;;;;;;;9.42;72.62;101268.03;4966138;28;20063;-84
2023/01/16 10:04:36;;;;;;;8.27;4.90;;;;;;;9.19;72.85;101211.81;4949364;28;20111;-84
2023/01/16 10:07:04;;;;;;;;;;;;;;;9.48;72.89;101271.97;4968218;28;20039;-85
2023/01/16 10:09:39;;;;;;;7.97;4.63;;;;;;;9.38;72.91;101253.91;4959853;28;20396;-84
2023/01/16 10:12:09;;;;;;;7.82;4.93;;;;;;;9.39;73.23;101255.69;4971663;28;20042;-83
2023/01/16 10:14:53;;;;;;;8.45;4.80;;;;;;;9.41;72.66;101248.88;4954961;28;20031;-85
2023/01/16 10:17:38;;;;;;;7.68;4.72;;;;;;;9.27;73.34;101221.00;4953397;28;20034;-84
2023/01/16 10:20:29;;;;;;;8.35;4.57;;;;;;;9.44;72.65;101227.31;4954061;28;20550;-84
2023/01/16 10:23:23;;;;;;;6.57;4.47;;;;;;;9.42;72.34;101211.63;4957872;28;20411;-85
2023/01/16 10:25:54;;;;;;;8.48;4.55;;;;;;;9.38;72.22;101201.78;4953016;28;20047;-84
2023/01/16 10:28:35;;;;;;;7.32;4.60;;;;;;;9.48;73.18;101211.09;4970445;28;20030;-84
2023/01/16 10:31:10;;;;;;;8.02;4.07;;;;;;;9.44;72.80;101199.59;4971636;28;20029;-83
2023/01/16 10:33:43;;;;;;;6.95;4.68;;;;;;;9.47;72.18;101202.38;4941131;28;20027;-83
2023/01/16 10:36:11;;;;;;;7.28;4.47;;;;;;;9.50;72.61;101204.28;4964740;28;20055;-83
2023/01/16 10:38:57;;;;;;;7.60;4.65;;;;;;;9.52;72.33;101195.75;4952607;28;20424;-83
2023/01/16 10:50:20;;;;;;;7.82;4.38;;;;;;;9.52;72.66;101185.31;4958783;28;20610;-84
2023/01/16 10:52:47;;;;;;;8.20;4.70;;;;;;;9.44;72.53;101170.91;4948653;28;20019;-84
2023/01/16 10:55:13;;;;;;;7.40;4.63;;;;;;;9.57;72.57;101180.41;4955573;28;20023;-83
2023/01/16 10:57:48;;;;;;;6.55;4.10;;;;;;;9.55;72.31;101169.00;4955687;28;20576;-85
2023/01/16 11:00:24;;;;;;;10.20;4.70;;;;;;;9.52;72.50;101168.78;4937439;29;20511;-85
2023/01/16 11:02:50;;;;;;;7.63;4.43;;;;;;;9.46;72.28;101148.44;4954945;28;20162;-83
2023/01/16 11:05:22;;;;;;;5.85;4.28;;;;;;;9.52;72.37;101163.56;4965558;28;20513;-86
2023/01/16 11:07:48;;;;;;;7.95;4.35;;;;;;;9.33;72.34;101120.69;4973167;28;20118;-86
2023/01/16 11:10:16;;;;;;;8.32;4.88;;;;;;;9.29;72.87;101115.16;4956313;28;20247;-86
2023/01/16 11:18:29;;;;;;;7.53;4.63;;;;;;;9.51;72.01;101120.06;4973317;28;20038;-88
2023/01/16 11:21:15;;;;;;;9.63;4.95;;;;;;;9.56;72.08;101142.09;4955091;28;20060;-88
2023/01/16 11:23:42;;;;;;;7.63;4.60;;;;;;;9.46;71.95;101125.00;4970444;28;20034;-87
2023/01/16 11:26:09;;;;;;;7.80;4.88;;;;;;;9.37;71.68;101107.03;4957034;28;20034;-87
2023/01/16 11:28:35;;;;;;;6.65;4.38;;;;;;;9.43;71.89;101097.81;4947759;28;20512;-87
2023/01/16 11:31:08;;;;;;;6.10;4.25;;;;;;;9.62;72.24;101128.56;4969446;28;20031;-88
2023/01/16 11:33:40;;;;;;;6.35;4.47;;;;;;;9.58;72.28;101124.84;4965017;28;20030;-87
2023/01/16 11:36:09;;;;;;;7.53;4.65;;;;;;;9.58;71.43;101125.75;4960713;28;20129;-90
2023/01/16 11:38:38;;;;;;;6.82;4.38;;;;;;;9.22;71.87;101059.16;4943772;28;20124;-88
2023/01/16 11:41:07;;;;;;;7.50;4.57;;;;;;;9.06;72.15;101022.47;4956582;28;20026;-87
2023/01/16 11:46:27;;;;;;;7.05;4.50;;;;;;;9.62;71.85;101102.50;4959798;28;20046;-88
2023/01/16 11:48:55;;;;;;;7.30;4.57;;;;;;;9.63;72.37;101115.63;4955568;28;20019;-87
2023/01/16 11:51:30;;;;;;;7.70;4.75;;;;;;;9.64;72.05;101107.00;4971461;28;20086;-86
2023/01/16 11:53:58;;;;;;;7.07;4.65;;;;;;;9.65;72.09;101113.09;4956844;28;20019;-88
2023/01/16 11:56:46;;;;;;;8.75;5.20;;;;;;;9.55;71.81;101080.34;4960253;28;20031;-87
2023/01/16 11:59:39;;;;;;;7.50;4.55;;;;;;;9.67;71.87;101094.16;4968750;28;20489;-87
2023/01/16 12:02:27;;;;;;;7.32;4.40;;;;;;;9.70;71.75;101093.44;4950404;28;20029;-86
2023/01/16 12:08:03;;;;;;;7.97;4.47;;;;;;;9.65;71.63;101082.72;4972583;28;20128;-86
2023/01/16 12:10:58;;;;;;;6.97;4.32;;;;;;;9.52;71.39;101061.88;4973086;28;20057;-86
2023/01/16 12:16:37;;;;;;;7.85;4.85;;;;;;;9.70;71.47;101076.09;4954737;28;20102;-86
2023/01/16 12:19:32;;;;;;;7.05;4.28;;;;;;;9.69;71.32;101070.75;4952626;28;20126;-86
2023/01/16 12:22:11;;;;;;;7.15;4.88;;;;;;;9.70;71.32;101077.81;4973329;28;20046;-86
2023/01/16 12:24:36;;;;;;;6.47;4.55;;;;;;;9.70;71.05;101069.97;4955866;28;20034;-87
2023/01/16 12:27:13;;;;;;;7.40;4.57;;;;;;;9.55;71.43;101047.34;4973172;28;20026;-88
2023/01/16 12:29:38;;;;;;;7.05;4.70;;;;;;;9.77;71.57;101074.75;4972046;28;20301;-87
2023/01/16 12:32:25;;;;;;;7.47;4.83;;;;;;;9.53;71.28;101037.63;4972967;28;20038;-87
2023/01/16 12:35:13;;;;;;;7.93;4.75;;;;;;;9.79;70.92;101071.44;4973389;28;20301;-87
2023/01/16 12:38:10;;;;;;;6.57;4.55;;;;;;;9.60;71.71;101044.13;4972893;28;20027;-85
2023/01/16 12:40:46;;;;;;;7.13;4.72;;;;;;;9.72;71.90;101071.88;4955092;28;20026;-87
2023/01/16 12:43:26;;;;;;;7.72;4.60;;;;;;;9.73;71.57;101065.81;4954216;28;20058;-86
2023/01/16 12:45:55;;;;;;;8.63;4.70;;;;;;;9.85;71.67;101065.69;4954159;28;20035;-88